Terminal Aerodrome Forecast
Issued by NWS Memphis, TN

Home | Current Version | Previous Version | Text Only | Print | Product List | Glossary On
Versions: 1 2 3 4 5 6 7 8 9 10 11 12 13 14 15 16 17 18 19
000
FTUS44 KMEG 181300 AAA
TAFMKL
TAF AMD
KMKL 181333Z 1814/1912 05004KT P6SM VCSH SCT025 OVC035
     FM181800 08004KT P6SM BKN040 BKN250
     FM190000 00000KT P6SM SCT035 SCT250
      TEMPO 1908/1912 2SM BR=

USA.gov is the U.S. government's official web portal to all federal, state and local government web resources and services.